Decoded Metar for PAWS (WASILLA in AK, USA) (IATA:IYS) | Meteo·Mobile Aviation Weather
aviador You're here:

PAWS Decoded Metar

WASILLA in AK, USA
Report Time2018-09-24 06:56:00
UTC Time2018-09-24 08:13:16
Flight Rules Old
WindCalm
Visibility9999 m
Phenomena:N/A
Clouds:Broken 110 Hf
Expected CloudBase > 2,000 ft AGL from Temp-Dew spread
Ceiling11,000 ft
Temp09°C (ISA -5)
Dew Point04°C (71% RH)
AAT7.7°C
QNH1010 hPa
Density Alt-69 ft
Elevation351 ft
Report Wrong Elevation
Raw Report
PAWS 240656Z AUTO 00000KT 10SM BKN110 09/04 A2984 RMK AO2 SLP121
T00940044=

Extra information for PAWS:More info

Metar Taf Metar & Taf Last 4 Metars F.Rules Stats Wind Profile Meteogram Temp Stats Airport Information Weather charts Add Link Nearby VenuesMetar ALERT Operation Metar Decoded Social comments

AIRNAV info for PAWS